createdAt,value
2019-04-14T00:01:41.889Z,74.40
2019-04-14T00:04:31.449Z,74.50
2019-04-14T00:07:01.538Z,74.70
2019-04-14T00:09:31.571Z,75.00
2019-04-14T00:12:04.187Z,74.60
2019-04-14T00:14:32.198Z,75.00
2019-04-14T00:17:02.131Z,76.10
2019-04-14T00:19:32.640Z,75.80
2019-04-14T00:22:03.273Z,75.80
2019-04-14T00:24:33.552Z,76.10
2019-04-14T00:27:04.144Z,76.20
2019-04-14T00:29:34.943Z,76.50
2019-04-14T00:32:05.402Z,76.80
2019-04-14T00:34:52.798Z,76.30
2019-04-14T00:37:34.239Z,77.20
2019-04-14T00:40:10.544Z,78.20
2019-04-14T00:42:56.207Z,77.70
2019-04-14T00:45:40.287Z,78.10
2019-04-14T00:48:11.767Z,78.20
2019-04-14T00:50:38.904Z,78.40
2019-04-14T00:53:08.281Z,79.00
2019-04-14T00:55:37.968Z,78.70
2019-04-14T00:58:08.145Z,79.00
2019-04-14T01:00:38.689Z,79.70
2019-04-14T01:03:09.067Z,79.70
2019-04-14T01:05:39.362Z,79.40
2019-04-14T01:08:09.664Z,80.10
2019-04-14T01:10:39.061Z,80.40
2019-04-14T01:13:11.023Z,80.50
2019-04-14T01:15:51.493Z,80.50
2019-04-14T01:18:10.509Z,81.00
2019-04-14T01:20:40.605Z,81.50
2019-04-14T01:23:10.608Z,81.70
2019-04-14T01:25:41.010Z,82.10
2019-04-14T01:28:11.326Z,82.30
2019-04-14T01:30:41.561Z,82.40
2019-04-14T01:33:11.920Z,82.40
2019-04-14T01:35:42.142Z,83.20
2019-04-14T01:38:12.547Z,83.30
2019-04-14T01:40:42.454Z,83.40
2019-04-14T01:43:12.373Z,84.20
2019-04-14T01:45:42.513Z,84.40
2019-04-14T01:48:12.710Z,84.80
2019-04-14T01:51:01.346Z,85.60
2019-04-14T01:53:40.069Z,85.30
2019-04-14T01:56:27.354Z,85.40
2019-04-14T01:58:57.936Z,86.40
2019-04-14T02:01:30.337Z,86.50
2019-04-14T02:04:00.637Z,87.00
2019-04-14T02:06:31.242Z,87.10
2019-04-14T02:09:01.311Z,88.10
2019-04-14T02:11:31.390Z,88.00
2019-04-14T02:14:01.607Z,88.60
2019-04-14T02:16:39.712Z,89.70
2019-04-14T02:19:02.438Z,88.80
2019-04-14T02:21:32.414Z,89.10
2019-04-14T02:24:02.534Z,89.70
2019-04-14T02:26:32.956Z,90.20
2019-04-14T02:29:03.500Z,90.30
2019-04-14T02:32:03.591Z,90.40
2019-04-14T02:34:34.709Z,90.50
2019-04-14T02:37:06.582Z,90.70
2019-04-14T02:42:32.604Z,91.20
2019-04-14T02:44:38.343Z,91.40
2019-04-14T02:47:27.119Z,91.60
2019-04-14T02:52:11.962Z,92.00
2019-04-14T02:54:53.834Z,92.10
2019-04-14T02:59:42.983Z,92.40
2019-04-14T03:02:30.399Z,92.60
2019-04-14T03:04:44.648Z,93.00
2019-04-14T03:07:25.945Z,93.10
2019-04-14T03:09:55.733Z,93.30
2019-04-14T03:12:16.837Z,93.50
2019-04-14T03:14:55.581Z,93.60
2019-04-14T03:17:33.391Z,93.70
2019-04-14T03:22:58.643Z,94.00
2019-04-14T03:25:34.032Z,94.10
2019-04-14T03:28:50.823Z,94.00
2019-04-14T03:34:08.262Z,94.70
2019-04-14T03:37:43.265Z,94.70
2019-04-14T03:38:53.294Z,95.00
2019-04-14T03:41:18.336Z,95.30
2019-04-14T03:43:38.205Z,95.50
2019-04-14T03:46:19.661Z,95.90
2019-04-14T03:51:17.450Z,96.20
2019-04-14T03:53:47.382Z,96.40
2019-04-14T03:56:29.178Z,96.80
2019-04-14T03:58:59.793Z,97.10
2019-04-14T04:01:30.215Z,97.30
2019-04-14T04:04:00.687Z,97.40
2019-04-14T04:06:31.258Z,98.00
2019-04-14T04:09:01.802Z,98.00
2019-04-14T04:11:32.201Z,98.20
2019-04-14T04:14:02.863Z,98.60
2019-04-14T04:16:51.446Z,98.70
2019-04-14T04:19:38.353Z,98.70
2019-04-14T04:22:21.544Z,98.90
2019-04-14T04:24:58.877Z,99.00
2019-04-14T04:27:56.901Z,99.50
2019-04-14T04:30:40.485Z,99.90
2019-04-14T04:33:15.552Z,99.70
2019-04-14T04:35:56.461Z,99.90
2019-04-14T04:38:44.879Z,99.90
2019-04-14T04:41:14.726Z,99.90
2019-04-14T04:43:45.127Z,99.90
2019-04-14T04:46:15.521Z,99.90
2019-04-14T04:48:58.326Z,99.90
2019-04-14T04:51:16.534Z,99.90
2019-04-14T04:53:46.187Z,99.90
2019-04-14T04:56:16.526Z,99.90
2019-04-14T04:58:45.967Z,99.90
2019-04-14T05:01:15.306Z,99.90
2019-04-14T05:03:44.966Z,99.90
2019-04-14T05:06:50.601Z,99.90
2019-04-14T05:09:29.642Z,99.90
2019-04-14T05:12:28.301Z,99.90
2019-04-14T05:15:33.334Z,99.90
2019-04-14T05:18:02.900Z,99.90
2019-04-14T05:20:33.393Z,99.90
2019-04-14T05:23:03.748Z,99.90
2019-04-14T05:25:34.131Z,99.90
2019-04-14T05:28:04.739Z,99.90
2019-04-14T05:30:35.008Z,99.90
2019-04-14T05:33:05.258Z,99.90
2019-04-14T05:35:35.745Z,99.90
2019-04-14T05:38:06.191Z,99.90
2019-04-14T05:40:36.411Z,99.90
2019-04-14T05:43:06.723Z,99.90
2019-04-14T05:45:37.259Z,99.90
2019-04-14T05:48:07.453Z,99.90
2019-04-14T05:50:37.930Z,99.90
2019-04-14T05:53:08.551Z,99.90
2019-04-14T05:55:38.139Z,99.90
2019-04-14T05:58:07.937Z,99.90
2019-04-14T06:00:38.926Z,99.90
2019-04-14T06:03:08.366Z,99.90
2019-04-14T06:05:38.271Z,99.90
2019-04-14T06:10:36.358Z,99.90
2019-04-14T06:13:05.677Z,99.90
2019-04-14T06:15:35.864Z,99.90
2019-04-14T06:20:35.111Z,99.90
2019-04-14T06:23:04.492Z,99.90
2019-04-14T06:25:36.260Z,99.90
2019-04-14T06:28:04.871Z,99.90
2019-04-14T06:30:53.139Z,99.90
2019-04-14T06:33:40.723Z,99.90
2019-04-14T06:36:34.794Z,99.90
2019-04-14T06:39:24.678Z,99.90
2019-04-14T06:41:54.032Z,99.90
2019-04-14T06:44:23.449Z,99.90
2019-04-14T06:46:52.858Z,99.90
2019-04-14T06:49:22.194Z,99.90
2019-04-14T06:51:51.513Z,99.90
2019-04-14T06:54:20.846Z,99.90
2019-04-14T06:56:50.242Z,99.70
2019-04-14T06:59:19.571Z,99.60
2019-04-14T07:01:48.904Z,99.60
2019-04-14T07:04:18.399Z,98.90
2019-04-14T07:06:47.734Z,98.80
2019-04-14T07:09:17.123Z,98.20
2019-04-14T07:11:46.470Z,98.30
2019-04-14T07:14:15.822Z,97.20
2019-04-14T07:16:45.247Z,97.10
2019-04-14T07:19:14.579Z,97.10
2019-04-14T07:21:43.930Z,97.10
2019-04-14T07:24:13.271Z,96.50
2019-04-14T07:26:42.766Z,96.30
2019-04-14T07:29:14.644Z,95.70
2019-04-14T07:32:05.270Z,95.50
2019-04-14T07:34:53.530Z,95.10
2019-04-14T07:37:40.591Z,95.50
2019-04-14T07:40:34.961Z,95.40
2019-04-14T07:43:29.059Z,93.50
2019-04-14T07:46:09.135Z,93.90
2019-04-14T07:49:00.472Z,92.80
2019-04-14T07:51:37.557Z,92.90
2019-04-14T07:54:14.419Z,92.10
2019-04-14T07:57:01.252Z,92.20
2019-04-14T07:59:34.283Z,91.50
2019-04-14T08:02:28.613Z,90.80
2019-04-14T08:05:04.082Z,91.10
2019-04-14T08:07:33.525Z,89.40
2019-04-14T08:10:02.864Z,89.80
2019-04-14T08:12:35.059Z,89.90
2019-04-14T08:15:03.362Z,86.60
2019-04-14T08:17:32.762Z,85.20
2019-04-14T08:20:02.085Z,86.40
2019-04-14T08:22:31.413Z,84.90
2019-04-14T08:25:00.815Z,84.50
2019-04-14T08:27:30.210Z,83.70
2019-04-14T08:30:00.517Z,83.30
2019-04-14T08:32:29.847Z,83.70
2019-04-14T08:34:59.243Z,80.60
2019-04-14T08:37:28.573Z,80.30
2019-04-14T08:39:57.907Z,79.10
2019-04-14T08:42:36.809Z,76.10
2019-04-14T08:45:18.446Z,71.90
2019-04-14T08:48:10.971Z,73.50
2019-04-14T08:50:47.998Z,72.60
2019-04-14T08:53:22.608Z,65.90
2019-04-14T08:56:16.718Z,66.10
2019-04-14T08:59:02.269Z,62.20
2019-04-14T09:01:53.411Z,61.60
2019-04-14T09:04:50.843Z,64.80
2019-04-14T09:07:29.619Z,62.30
2019-04-14T09:10:11.812Z,60.80
2019-04-14T09:12:42.070Z,60.20
2019-04-14T09:15:11.402Z,58.00
2019-04-14T09:17:40.738Z,57.50
2019-04-14T09:20:10.150Z,58.00
2019-04-14T09:22:39.480Z,58.70
2019-04-14T09:25:08.874Z,58.90
2019-04-14T09:27:38.191Z,59.00
2019-04-14T09:30:08.190Z,58.90
2019-04-14T09:32:37.630Z,58.80
2019-04-14T09:35:07.480Z,57.70
2019-04-14T09:37:36.845Z,57.50
2019-04-14T09:40:06.367Z,58.00
2019-04-14T09:42:35.774Z,58.10
2019-04-14T09:45:06.367Z,57.50
2019-04-14T09:47:35.947Z,55.20
2019-04-14T09:50:07.297Z,56.00
2019-04-14T09:52:36.878Z,56.90
2019-04-14T09:55:06.807Z,56.60
2019-04-14T09:57:36.204Z,55.90
2019-04-14T10:00:07.351Z,56.90
2019-04-14T10:02:36.671Z,56.10
2019-04-14T10:05:06.718Z,57.70
2019-04-14T10:07:36.137Z,59.10
2019-04-14T10:10:06.333Z,59.30
2019-04-14T10:12:35.752Z,59.50
2019-04-14T10:15:06.685Z,59.30
2019-04-14T10:17:36.091Z,59.90
2019-04-14T10:20:05.580Z,59.30
2019-04-14T10:22:34.984Z,58.90
2019-04-14T10:25:04.850Z,58.50
2019-04-14T10:27:34.462Z,59.30
2019-04-14T10:30:04.258Z,58.60
2019-04-14T10:32:33.663Z,58.20
2019-04-14T10:35:02.994Z,58.50
2019-04-14T10:37:32.350Z,58.40
2019-04-14T10:40:01.711Z,58.40
2019-04-14T10:42:31.126Z,58.80
2019-04-14T10:45:00.507Z,58.80
2019-04-14T10:47:29.927Z,56.80
2019-04-14T10:49:59.283Z,55.50
2019-04-14T10:52:28.629Z,54.90
2019-04-14T10:54:58.030Z,54.30
2019-04-14T10:57:27.431Z,55.30
2019-04-14T10:59:56.767Z,54.50
2019-04-14T11:02:26.181Z,54.70
2019-04-14T11:04:55.608Z,55.00
2019-04-14T11:07:28.044Z,54.70
2019-04-14T11:09:57.399Z,54.70
2019-04-14T11:12:26.718Z,54.30
2019-04-14T11:14:56.046Z,54.70
2019-04-14T11:17:25.395Z,54.00
2019-04-14T11:19:54.742Z,54.70
2019-04-14T11:22:24.066Z,53.50
2019-04-14T11:24:53.468Z,54.10
2019-04-14T11:27:23.997Z,53.30
2019-04-14T11:29:54.138Z,53.40
2019-04-14T11:33:00.462Z,53.40
2019-04-14T11:35:39.615Z,52.70
2019-04-14T11:38:26.203Z,53.50
2019-04-14T11:41:00.629Z,53.80
2019-04-14T11:43:30.011Z,53.50
2019-04-14T11:45:59.347Z,53.20
2019-04-14T11:48:28.675Z,52.80
2019-04-14T11:50:58.006Z,52.50
2019-04-14T11:53:27.367Z,53.20
2019-04-14T11:55:56.742Z,51.50
2019-04-14T11:58:28.950Z,53.10
2019-04-14T12:01:18.951Z,53.60
2019-04-14T12:04:21.933Z,53.30
2019-04-14T12:07:08.802Z,51.80
2019-04-14T12:09:44.210Z,52.40
2019-04-14T12:12:13.604Z,53.20
2019-04-14T12:14:42.943Z,53.50
2019-04-14T12:17:12.272Z,51.60
2019-04-14T12:19:41.714Z,51.90
2019-04-14T12:22:11.055Z,52.00
2019-04-14T12:24:40.411Z,52.60
2019-04-14T12:27:10.019Z,51.80
2019-04-14T12:29:39.371Z,52.30
2019-04-14T12:32:08.800Z,52.60
2019-04-14T12:34:38.176Z,51.60
2019-04-14T12:37:07.783Z,52.60
2019-04-14T12:39:37.315Z,52.60
2019-04-14T12:42:28.723Z,51.60
2019-04-14T12:45:10.311Z,50.90
2019-04-14T12:48:01.351Z,49.80
2019-04-14T12:50:40.390Z,50.00
2019-04-14T12:53:09.746Z,51.60
2019-04-14T12:55:39.071Z,50.10
2019-04-14T12:58:11.148Z,50.20
2019-04-14T13:00:43.134Z,50.30
2019-04-14T13:03:12.479Z,50.70
2019-04-14T13:05:41.846Z,50.20
2019-04-14T13:08:11.247Z,49.10
2019-04-14T13:10:40.850Z,51.20
2019-04-14T13:13:10.199Z,50.40
2019-04-14T13:15:39.627Z,49.40
2019-04-14T13:18:08.979Z,51.30
2019-04-14T13:20:38.349Z,49.50
2019-04-14T13:23:07.764Z,50.40
2019-04-14T13:25:37.107Z,49.50
2019-04-14T13:28:06.456Z,49.30
2019-04-14T13:30:38.639Z,50.80
2019-04-14T13:33:07.973Z,49.60
2019-04-14T13:35:37.367Z,50.30
2019-04-14T13:38:06.771Z,49.60
2019-04-14T13:40:36.099Z,49.60
2019-04-14T13:43:05.435Z,50.10
2019-04-14T13:45:34.755Z,49.60
2019-04-14T13:48:04.079Z,48.00
2019-04-14T13:50:33.404Z,48.30
2019-04-14T13:53:02.826Z,48.70
2019-04-14T13:55:32.162Z,48.50
2019-04-14T13:58:01.520Z,50.10
2019-04-14T14:00:30.840Z,49.40
2019-04-14T14:03:00.184Z,49.80
2019-04-14T14:05:29.525Z,49.30
2019-04-14T14:07:58.851Z,49.20
2019-04-14T14:10:28.968Z,48.70
2019-04-14T14:13:05.736Z,49.10
2019-04-14T14:15:58.844Z,49.00
2019-04-14T14:18:45.856Z,47.90
2019-04-14T14:21:27.587Z,47.00
2019-04-14T14:24:14.431Z,46.90
2019-04-14T14:26:44.470Z,46.00
2019-04-14T14:29:13.891Z,46.20
2019-04-14T14:31:43.345Z,47.60
2019-04-14T14:34:12.679Z,47.10
2019-04-14T14:36:42.022Z,44.70
2019-04-14T14:39:11.388Z,44.80
2019-04-14T14:41:40.760Z,42.00
2019-04-14T14:44:10.189Z,42.30
2019-04-14T14:46:49.288Z,44.40
2019-04-14T14:49:25.791Z,45.40
2019-04-14T14:51:59.414Z,45.30
2019-04-14T14:54:28.784Z,45.80
2019-04-14T14:56:58.171Z,45.10
2019-04-14T14:59:27.518Z,45.30
2019-04-14T15:01:57.374Z,44.00
2019-04-14T15:04:26.731Z,45.00
2019-04-14T15:06:56.074Z,42.50
2019-04-14T15:09:25.446Z,41.00
2019-04-14T15:11:54.885Z,41.30
2019-04-14T15:14:24.240Z,41.50
2019-04-14T15:16:53.891Z,40.00
2019-04-14T15:19:23.519Z,39.00
2019-04-14T15:21:52.988Z,41.80
2019-04-14T15:24:22.419Z,41.40
2019-04-14T15:26:51.781Z,40.20
2019-04-14T15:29:21.388Z,42.30
2019-04-14T15:31:50.816Z,42.50
2019-04-14T15:34:20.252Z,42.20
2019-04-14T15:36:49.614Z,41.60
2019-04-14T15:39:18.955Z,43.10
2019-04-14T15:41:48.405Z,42.80
2019-04-14T15:44:17.744Z,43.40
2019-04-14T15:46:47.553Z,43.70
2019-04-14T15:49:16.923Z,43.40
2019-04-14T15:51:46.273Z,43.80
2019-04-14T15:54:15.609Z,42.50
2019-04-14T15:57:03.898Z,42.60
2019-04-14T15:59:58.273Z,43.40
2019-04-14T16:02:36.431Z,42.80
2019-04-14T16:05:28.302Z,43.50
2019-04-14T16:08:02.562Z,43.30
2019-04-14T16:10:42.718Z,44.90
2019-04-14T16:13:20.634Z,46.10
2019-04-14T16:15:55.255Z,46.40
2019-04-14T16:18:49.691Z,45.70
2019-04-14T16:21:19.094Z,46.00
2019-04-14T16:23:50.748Z,47.00
2019-04-14T16:26:30.827Z,46.50
2019-04-14T16:29:09.352Z,47.90
2019-04-14T16:31:48.402Z,46.70
2019-04-14T16:34:39.530Z,46.30
2019-04-14T16:37:08.883Z,46.30
2019-04-14T16:39:38.444Z,46.90
2019-04-14T16:42:07.859Z,47.60
2019-04-14T16:44:37.275Z,48.70
2019-04-14T16:47:06.632Z,49.10
2019-04-14T16:49:36.255Z,48.70
2019-04-14T16:52:31.542Z,48.90
2019-04-14T16:55:25.887Z,49.50
2019-04-14T16:58:19.979Z,48.40
2019-04-14T17:00:53.734Z,49.00
2019-04-14T17:03:23.096Z,49.90
2019-04-14T17:05:52.508Z,50.00
2019-04-14T17:08:21.878Z,49.60
2019-04-14T17:10:51.272Z,50.30
2019-04-14T17:13:21.202Z,51.20
2019-04-14T17:16:15.467Z,50.60
2019-04-14T17:18:55.031Z,49.50
2019-04-14T17:22:01.434Z,49.50
2019-04-14T17:25:00.675Z,49.70
2019-04-14T17:27:47.088Z,49.80
2019-04-14T17:30:30.563Z,50.30
2019-04-14T17:33:17.273Z,49.50
2019-04-14T17:36:05.180Z,50.50
2019-04-14T17:38:56.149Z,51.10
2019-04-14T17:41:34.367Z,50.90
2019-04-14T17:44:28.599Z,51.60
2019-04-14T17:47:16.935Z,52.30
2019-04-14T17:49:55.778Z,52.30
2019-04-14T17:52:32.722Z,53.10
2019-04-14T17:55:21.100Z,53.10
2019-04-14T17:57:57.419Z,54.20
2019-04-14T18:00:51.979Z,54.10
2019-04-14T18:03:42.436Z,54.90
2019-04-14T18:06:30.947Z,54.30
2019-04-14T18:09:22.252Z,55.50
2019-04-14T18:12:06.286Z,55.80
2019-04-14T18:14:51.166Z,55.00
2019-04-14T18:17:46.166Z,55.70
2019-04-14T18:20:34.516Z,55.80
2019-04-14T18:23:04.114Z,55.90
2019-04-14T18:25:33.753Z,56.10
2019-04-14T18:28:20.948Z,56.60
2019-04-14T18:30:58.841Z,56.30
2019-04-14T18:33:33.866Z,56.60
2019-04-14T18:36:19.214Z,57.20
2019-04-14T18:41:59.115Z,57.80
2019-04-14T18:44:50.216Z,58.20
2019-04-14T18:47:44.575Z,58.90
2019-04-14T18:50:38.470Z,58.80
2019-04-14T18:53:14.970Z,59.40
2019-04-14T18:56:12.091Z,59.30
2019-04-14T18:58:47.782Z,58.80
2019-04-14T19:01:19.566Z,59.70
2019-04-14T19:03:48.915Z,59.90
2019-04-14T19:06:18.279Z,60.10
2019-04-14T19:08:47.659Z,59.90
2019-04-14T19:11:35.945Z,60.30
2019-04-14T19:14:05.994Z,60.20
2019-04-14T19:16:41.775Z,61.10
2019-04-14T19:19:11.184Z,61.20
2019-04-14T19:21:40.512Z,61.60
2019-04-14T19:24:09.874Z,61.30
2019-04-14T19:26:39.231Z,61.70
2019-04-14T19:29:08.615Z,61.80
2019-04-14T19:31:37.944Z,62.00
2019-04-14T19:34:07.295Z,62.50
2019-04-14T19:36:36.636Z,62.80
2019-04-14T19:39:09.641Z,63.00
2019-04-14T19:41:39.167Z,63.10
2019-04-14T19:44:08.509Z,62.80
2019-04-14T19:46:37.834Z,63.70
2019-04-14T19:49:07.241Z,63.70
2019-04-14T19:51:36.587Z,63.80
2019-04-14T19:54:05.920Z,64.00
2019-04-14T19:56:35.295Z,64.30
2019-04-14T19:59:04.627Z,64.30
2019-04-14T20:01:33.958Z,64.70
2019-04-14T20:04:03.377Z,65.00
2019-04-14T20:06:32.783Z,65.30
2019-04-14T20:09:02.194Z,65.10
2019-04-14T20:11:31.584Z,65.50
2019-04-14T20:14:00.912Z,65.80
2019-04-14T20:16:58.235Z,66.10
2019-04-14T20:19:49.283Z,66.30
2019-04-14T20:22:46.376Z,66.70
2019-04-14T20:25:37.606Z,66.60
2019-04-14T20:28:12.034Z,66.70
2019-04-14T20:30:54.602Z,66.80
2019-04-14T20:33:23.983Z,67.10
2019-04-14T20:35:53.321Z,67.30
2019-04-14T20:38:22.715Z,67.60
2019-04-14T20:40:52.140Z,67.80
2019-04-14T20:43:21.536Z,67.70
2019-04-14T20:45:50.867Z,67.70
2019-04-14T20:48:20.196Z,68.00
2019-04-14T20:50:49.523Z,68.30
2019-04-14T20:53:18.915Z,68.60
2019-04-14T20:55:48.322Z,68.40
2019-04-14T20:58:17.723Z,69.00
2019-04-14T21:00:47.059Z,68.90
2019-04-14T21:03:38.354Z,69.40
2019-04-14T21:06:35.639Z,69.90
2019-04-14T21:09:12.618Z,70.10
2019-04-14T21:12:00.874Z,69.90
2019-04-14T21:14:49.146Z,69.80
2019-04-14T21:17:30.862Z,70.40
2019-04-14T21:20:19.118Z,71.00
2019-04-14T21:22:58.489Z,71.00
2019-04-14T21:25:39.374Z,70.80
2019-04-14T21:28:20.723Z,71.30
2019-04-14T21:31:07.707Z,71.20
2019-04-14T21:34:05.157Z,71.30
2019-04-14T21:36:53.486Z,71.50
2019-04-14T21:39:40.749Z,72.40
2019-04-14T21:42:10.258Z,72.00
2019-04-14T21:44:39.591Z,73.10
2019-04-14T21:47:08.931Z,73.40
2019-04-14T21:49:38.260Z,73.50
2019-04-14T21:52:25.187Z,73.80
2019-04-14T21:54:54.591Z,73.70
2019-04-14T21:57:51.904Z,73.90
2019-04-14T22:01:16.816Z,73.60
2019-04-14T22:04:08.494Z,74.20
2019-04-14T22:06:40.080Z,74.60
2019-04-14T22:09:15.675Z,74.40
2019-04-14T22:11:45.082Z,74.90
2019-04-14T22:14:14.495Z,74.90
2019-04-14T22:16:43.850Z,75.50
2019-04-14T22:19:13.175Z,76.20
2019-04-14T22:21:42.515Z,76.30
2019-04-14T22:24:11.880Z,76.40
2019-04-14T22:26:41.350Z,76.70
2019-04-14T22:29:10.787Z,76.90
2019-04-14T22:31:40.189Z,77.40
2019-04-14T22:34:09.555Z,77.40
2019-04-14T22:36:38.876Z,77.00
2019-04-14T22:39:09.991Z,78.10
2019-04-14T22:41:39.328Z,78.10
2019-04-14T22:44:08.677Z,78.20
2019-04-14T22:46:38.006Z,78.20
2019-04-14T22:49:07.356Z,78.60
2019-04-14T22:51:36.806Z,79.20
2019-04-14T22:54:06.173Z,79.60
2019-04-14T22:56:39.439Z,80.10
2019-04-14T22:59:06.679Z,80.90
2019-04-14T23:01:38.106Z,80.30
2019-04-14T23:04:32.410Z,79.90
2019-04-14T23:07:36.030Z,80.90
2019-04-14T23:10:24.640Z,81.10
2019-04-14T23:13:11.527Z,81.00
2019-04-14T23:16:00.099Z,81.50
2019-04-14T23:18:34.267Z,82.30
2019-04-14T23:21:28.378Z,81.90
2019-04-14T23:24:15.647Z,83.20
2019-04-14T23:26:52.384Z,83.40
2019-04-14T23:29:16.127Z,83.50
2019-04-14T23:31:45.461Z,82.60
2019-04-14T23:34:14.862Z,82.90
2019-04-14T23:36:44.214Z,82.80
2019-04-14T23:39:13.539Z,84.00
2019-04-14T23:41:42.875Z,84.40
2019-04-14T23:44:12.215Z,83.80
2019-04-14T23:46:41.619Z,84.90
2019-04-14T23:49:10.979Z,84.80
2019-04-14T23:51:40.319Z,84.90
2019-04-14T23:54:09.799Z,84.70
2019-04-14T23:56:39.137Z,85.20
2019-04-14T23:59:08.552Z,85.90
